»·PEaware :: N80991 L52-L88

N80991 :: L52-L88

FLIGHT INFORMATION

Flight Status: Arrived
Operator: Privately registered:
United States
More flights under this callsign
Pilot: Evan W. (20540)
Aircraft: CESSNA 172 SKYHAWK
(C172)
More flights by this aircraft type
Origin: L52 Oceano Co
United States
Destination: L88 New Cuyama
United States
More flights between these airports :: More routes between these airports
Route:
File this flight plan on PilotEdge
Remarks: cat-01
Altitude:
(Current/Filed)
5,000ft
Speed:
(Current/Filed)
120kts
Departed: 22-Sep-18 03:08 PM
Arrived: 22-Sep-18 03:34 PM
Distance/Time
Traveled:
47nm/0:26
Distance/Time
To Go:
Arrived

Flight Plot

Page will automatically refresh every two minutes.


Map Options




Map Legend


Flown Route
Filed Route
Departure Airport
Arrival Airport
Navaid (VOR, NDB)
Fix

Horizontal Profiles

Position Reports

Time Latitude Longitude Heading Altitude Ground
Speed
22-Sep-18 14:45 35.103162 -120.624182 214 15ft 0kts
22-Sep-18 14:46 35.103162 -120.624182 214 15ft 0kts
22-Sep-18 14:47 35.103162 -120.624182 214 15ft 0kts
22-Sep-18 14:48 35.103162 -120.624182 214 15ft 0kts
22-Sep-18 14:49 35.103162 -120.624182 214 15ft 0kts
22-Sep-18 14:51 35.103160 -120.624193 214 15ft 0kts
22-Sep-18 14:52 35.103160 -120.624193 214 15ft 0kts
22-Sep-18 14:53 35.103160 -120.624193 214 15ft 0kts
22-Sep-18 14:54 35.103160 -120.624193 214 15ft 0kts
22-Sep-18 14:55 35.103160 -120.624193 214 15ft 0kts
22-Sep-18 14:56 35.103160 -120.624193 214 15ft 0kts
22-Sep-18 14:57 35.103160 -120.624193 214 15ft 0kts
22-Sep-18 14:58 35.103160 -120.624193 214 15ft 0kts
22-Sep-18 14:59 35.103160 -120.624193 214 15ft 0kts
22-Sep-18 15:00 35.103160 -120.624193 214 15ft 0kts
22-Sep-18 15:01 35.103160 -120.624193 214 15ft 0kts
22-Sep-18 15:02 35.103160 -120.624193 214 15ft 0kts
22-Sep-18 15:03 35.103160 -120.624193 214 15ft 0kts
22-Sep-18 15:04 35.103160 -120.624193 214 15ft 0kts
22-Sep-18 15:05 35.103160 -120.624193 214 15ft 0kts
22-Sep-18 15:06 35.103160 -120.624193 214 15ft 0kts
22-Sep-18 15:07 35.102764 -120.623793 189 15ft 9kts
22-Sep-18 15:08 35.100552 -120.621377 122 17ft 14kts
22-Sep-18 15:09 35.099541 -120.619389 87 17ft 0kts
22-Sep-18 15:10 35.103228 -120.630541 229 406ft 76kts
22-Sep-18 15:11 35.090632 -120.606613 97 1137ft 111kts
22-Sep-18 15:12 35.087422 -120.570602 98 1909ft 112kts
22-Sep-18 15:13 35.084851 -120.534581 97 2499ft 107kts
22-Sep-18 15:14 35.079797 -120.498468 98 2905ft 112kts
22-Sep-18 15:15 35.075433 -120.463116 99 3446ft 104kts
22-Sep-18 15:16 35.071150 -120.428425 101 3926ft 103kts
22-Sep-18 15:17 35.066743 -120.393940 100 4390ft 103kts
22-Sep-18 15:18 35.061789 -120.359640 105 4839ft 102kts
22-Sep-18 15:19 35.056569 -120.327146 98 5148ft 111kts
22-Sep-18 15:20 35.052004 -120.291271 103 5574ft 102kts
22-Sep-18 15:21 35.046216 -120.254032 103 5518ft 126kts
22-Sep-18 15:22 35.040061 -120.215393 103 5426ft 129kts
22-Sep-18 15:23 35.033555 -120.174234 103 5325ft 130kts
22-Sep-18 15:24 35.026855 -120.131357 103 5220ft 130kts
22-Sep-18 15:25 35.020216 -120.088150 103 5159ft 128kts
22-Sep-18 15:26 35.014024 -120.046826 103 5152ft 127kts
22-Sep-18 15:27 35.007824 -120.004402 103 5178ft 128kts
22-Sep-18 15:28 35.001704 -119.961969 103 5128ft 128kts
22-Sep-18 15:29 34.995588 -119.919369 103 5123ft 128kts
22-Sep-18 15:30 34.989481 -119.876596 103 5119ft 128kts
22-Sep-18 15:31 34.984060 -119.833871 103 5123ft 127kts
22-Sep-18 15:32 34.975807 -119.791288 109 5017ft 131kts
22-Sep-18 15:33 34.965589 -119.753034 114 4019ft 111kts
22-Sep-18 15:34 34.954046 -119.719257 119 3056ft 95kts
22-Sep-18 15:35 34.942723 -119.692291 120 2211ft 78kts
22-Sep-18 15:36 34.939434 -119.683877 247 2185ft 2kts
22-Sep-18 15:37 34.940920 -119.687959 293 2166ft 29kts
22-Sep-18 15:38 34.943998 -119.690944 20 2153ft 0kts
22-Sep-18 15:39 34.943998 -119.690944 20 2153ft 0kts

Navigation Log

Ident Type
Flight plan parsing failed, navigation log unavailable